sensor_id;sensor_type;location;lat;lon;timestamp;P1;durP1;ratioP1;P2;durP2;ratioP2
1004;SDS011;491;53.480;10.174;2023-06-22T00:00:50;3.50;;;1.63;;
1004;SDS011;491;53.480;10.174;2023-06-22T00:03:17;4.77;;;2.07;;
1004;SDS011;491;53.480;10.174;2023-06-22T00:05:44;4.10;;;1.90;;
1004;SDS011;491;53.480;10.174;2023-06-22T00:08:10;5.00;;;2.70;;
1004;SDS011;491;53.480;10.174;2023-06-22T00:10:36;3.53;;;2.00;;
1004;SDS011;491;53.480;10.174;2023-06-22T00:13:01;4.37;;;2.53;;
1004;SDS011;491;53.480;10.174;2023-06-22T00:15:30;4.73;;;2.77;;
1004;SDS011;491;53.480;10.174;2023-06-22T00:17:56;3.70;;;1.87;;
1004;SDS011;491;53.480;10.174;2023-06-22T00:20:22;4.63;;;2.47;;
1004;SDS011;491;53.480;10.174;2023-06-22T00:22:48;3.23;;;2.20;;
1004;SDS011;491;53.480;10.174;2023-06-22T00:25:13;6.23;;;2.70;;
1004;SDS011;491;53.480;10.174;2023-06-22T00:27:39;5.60;;;2.33;;
1004;SDS011;491;53.480;10.174;2023-06-22T00:30:05;4.83;;;2.50;;
1004;SDS011;491;53.480;10.174;2023-06-22T00:32:31;3.43;;;2.40;;
1004;SDS011;491;53.480;10.174;2023-06-22T00:34:56;2.90;;;1.87;;
1004;SDS011;491;53.480;10.174;2023-06-22T00:37:21;2.97;;;1.83;;
1004;SDS011;491;53.480;10.174;2023-06-22T00:39:50;4.83;;;2.10;;
1004;SDS011;491;53.480;10.174;2023-06-22T00:42:16;2.50;;;1.83;;
1004;SDS011;491;53.480;10.174;2023-06-22T00:44:42;2.53;;;1.93;;
1004;SDS011;491;53.480;10.174;2023-06-22T00:47:07;3.87;;;2.10;;
1004;SDS011;491;53.480;10.174;2023-06-22T00:49:33;6.00;;;3.30;;
1004;SDS011;491;53.480;10.174;2023-06-22T00:51:58;3.47;;;1.90;;
1004;SDS011;491;53.480;10.174;2023-06-22T00:54:24;3.90;;;2.10;;
1004;SDS011;491;53.480;10.174;2023-06-22T00:56:53;3.97;;;2.20;;
1004;SDS011;491;53.480;10.174;2023-06-22T00:59:21;3.03;;;2.03;;
1004;SDS011;491;53.480;10.174;2023-06-22T01:01:49;4.60;;;2.13;;
1004;SDS011;491;53.480;10.174;2023-06-22T01:04:15;3.90;;;2.67;;
1004;SDS011;491;53.480;10.174;2023-06-22T01:06:42;3.53;;;2.73;;
1004;SDS011;491;53.480;10.174;2023-06-22T01:09:17;2.37;;;1.40;;
1004;SDS011;491;53.480;10.174;2023-06-22T01:11:50;3.57;;;2.50;;
1004;SDS011;491;53.480;10.174;2023-06-22T01:14:23;4.90;;;2.70;;
1004;SDS011;491;53.480;10.174;2023-06-22T01:16:51;3.37;;;2.57;;
1004;SDS011;491;53.480;10.174;2023-06-22T01:21:59;4.23;;;2.07;;
1004;SDS011;491;53.480;10.174;2023-06-22T01:24:33;3.00;;;2.00;;
1004;SDS011;491;53.480;10.174;2023-06-22T01:29:55;4.90;;;2.73;;
1004;SDS011;491;53.480;10.174;2023-06-22T01:32:25;3.77;;;2.23;;
1004;SDS011;491;53.480;10.174;2023-06-22T01:34:55;3.67;;;2.40;;
1004;SDS011;491;53.480;10.174;2023-06-22T01:37:22;4.10;;;2.73;;
1004;SDS011;491;53.480;10.174;2023-06-22T01:39:48;4.53;;;3.00;;
1004;SDS011;491;53.480;10.174;2023-06-22T01:42:15;3.90;;;2.60;;
1004;SDS011;491;53.480;10.174;2023-06-22T01:44:41;2.70;;;2.17;;
1004;SDS011;491;53.480;10.174;2023-06-22T01:47:08;4.13;;;2.07;;
1004;SDS011;491;53.480;10.174;2023-06-22T01:49:34;3.00;;;2.10;;
1004;SDS011;491;53.480;10.174;2023-06-22T01:51:59;3.30;;;2.43;;
1004;SDS011;491;53.480;10.174;2023-06-22T01:54:25;4.97;;;2.30;;
1004;SDS011;491;53.480;10.174;2023-06-22T01:56:51;3.27;;;2.27;;
1004;SDS011;491;53.480;10.174;2023-06-22T01:59:17;4.57;;;2.30;;
1004;SDS011;491;53.480;10.174;2023-06-22T02:01:54;3.17;;;2.50;;
1004;SDS011;491;53.480;10.174;2023-06-22T02:04:25;4.20;;;2.57;;
1004;SDS011;491;53.480;10.174;2023-06-22T02:06:54;3.60;;;2.20;;
1004;SDS011;491;53.480;10.174;2023-06-22T02:09:23;5.13;;;2.67;;
1004;SDS011;491;53.480;10.174;2023-06-22T02:11:51;4.53;;;2.50;;
1004;SDS011;491;53.480;10.174;2023-06-22T02:14:19;4.80;;;2.77;;
1004;SDS011;491;53.480;10.174;2023-06-22T02:16:46;3.40;;;2.77;;
1004;SDS011;491;53.480;10.174;2023-06-22T02:19:12;3.03;;;2.57;;
1004;SDS011;491;53.480;10.174;2023-06-22T02:21:44;5.87;;;2.70;;
1004;SDS011;491;53.480;10.174;2023-06-22T02:24:10;3.50;;;2.40;;
1004;SDS011;491;53.480;10.174;2023-06-22T02:26:35;3.27;;;2.87;;
1004;SDS011;491;53.480;10.174;2023-06-22T02:29:03;3.17;;;2.70;;
1004;SDS011;491;53.480;10.174;2023-06-22T02:31:28;4.07;;;2.60;;
1004;SDS011;491;53.480;10.174;2023-06-22T02:33:58;5.60;;;3.33;;
1004;SDS011;491;53.480;10.174;2023-06-22T02:36:25;4.90;;;2.63;;
1004;SDS011;491;53.480;10.174;2023-06-22T02:38:52;5.33;;;3.47;;
1004;SDS011;491;53.480;10.174;2023-06-22T02:41:19;4.17;;;2.40;;
1004;SDS011;491;53.480;10.174;2023-06-22T02:43:48;5.67;;;3.00;;
1004;SDS011;491;53.480;10.174;2023-06-22T02:46:13;4.33;;;3.10;;
1004;SDS011;491;53.480;10.174;2023-06-22T02:48:39;3.10;;;2.80;;
1004;SDS011;491;53.480;10.174;2023-06-22T02:51:05;4.00;;;2.83;;
1004;SDS011;491;53.480;10.174;2023-06-22T02:53:31;5.33;;;3.83;;
1004;SDS011;491;53.480;10.174;2023-06-22T02:55:57;4.53;;;3.13;;
1004;SDS011;491;53.480;10.174;2023-06-22T02:58:22;5.50;;;3.23;;
1004;SDS011;491;53.480;10.174;2023-06-22T03:00:49;4.63;;;4.07;;
1004;SDS011;491;53.480;10.174;2023-06-22T03:03:18;4.67;;;2.67;;
1004;SDS011;491;53.480;10.174;2023-06-22T03:05:44;3.60;;;3.13;;
1004;SDS011;491;53.480;10.174;2023-06-22T03:08:09;4.70;;;2.77;;
1004;SDS011;491;53.480;10.174;2023-06-22T03:10:35;3.30;;;2.70;;
1004;SDS011;491;53.480;10.174;2023-06-22T03:13:00;3.80;;;2.70;;
1004;SDS011;491;53.480;10.174;2023-06-22T03:15:26;4.00;;;3.00;;
1004;SDS011;491;53.480;10.174;2023-06-22T03:17:54;4.97;;;3.20;;
1004;SDS011;491;53.480;10.174;2023-06-22T03:20:19;4.03;;;3.27;;
1004;SDS011;491;53.480;10.174;2023-06-22T03:22:45;4.30;;;2.23;;
1004;SDS011;491;53.480;10.174;2023-06-22T03:25:10;5.40;;;3.57;;
1004;SDS011;491;53.480;10.174;2023-06-22T03:27:38;4.90;;;3.33;;
1004;SDS011;491;53.480;10.174;2023-06-22T03:30:09;4.43;;;3.03;;
1004;SDS011;491;53.480;10.174;2023-06-22T03:32:36;4.37;;;3.07;;
1004;SDS011;491;53.480;10.174;2023-06-22T03:35:01;3.83;;;3.27;;
1004;SDS011;491;53.480;10.174;2023-06-22T03:37:27;5.17;;;3.53;;
1004;SDS011;491;53.480;10.174;2023-06-22T03:39:53;6.30;;;3.40;;
1004;SDS011;491;53.480;10.174;2023-06-22T03:42:19;5.07;;;3.20;;
1004;SDS011;491;53.480;10.174;2023-06-22T03:44:44;4.30;;;3.57;;
1004;SDS011;491;53.480;10.174;2023-06-22T03:47:10;5.87;;;3.17;;
1004;SDS011;491;53.480;10.174;2023-06-22T03:49:35;5.77;;;4.47;;
1004;SDS011;491;53.480;10.174;2023-06-22T03:52:01;4.27;;;3.60;;
1004;SDS011;491;53.480;10.174;2023-06-22T03:54:28;3.80;;;3.37;;
1004;SDS011;491;53.480;10.174;2023-06-22T03:56:54;4.90;;;3.03;;
1004;SDS011;491;53.480;10.174;2023-06-22T03:59:20;6.43;;;3.23;;
1004;SDS011;491;53.480;10.174;2023-06-22T04:01:45;4.30;;;3.20;;
1004;SDS011;491;53.480;10.174;2023-06-22T04:04:11;5.20;;;3.80;;
1004;SDS011;491;53.480;10.174;2023-06-22T04:06:37;4.63;;;3.37;;
1004;SDS011;491;53.480;10.174;2023-06-22T04:09:03;6.20;;;3.20;;
1004;SDS011;491;53.480;10.174;2023-06-22T04:11:28;4.13;;;3.73;;
1004;SDS011;491;53.480;10.174;2023-06-22T04:13:54;5.03;;;4.43;;
1004;SDS011;491;53.480;10.174;2023-06-22T04:16:20;6.70;;;4.47;;
1004;SDS011;491;53.480;10.174;2023-06-22T04:18:46;5.30;;;3.40;;
1004;SDS011;491;53.480;10.174;2023-06-22T04:21:11;6.50;;;3.63;;
1004;SDS011;491;53.480;10.174;2023-06-22T04:23:38;5.30;;;2.90;;
1004;SDS011;491;53.480;10.174;2023-06-22T04:26:03;4.30;;;2.87;;
1004;SDS011;491;53.480;10.174;2023-06-22T04:28:29;3.77;;;3.10;;
1004;SDS011;491;53.480;10.174;2023-06-22T04:30:54;3.70;;;3.30;;
1004;SDS011;491;53.480;10.174;2023-06-22T04:33:27;5.10;;;3.00;;
1004;SDS011;491;53.480;10.174;2023-06-22T04:35:54;4.70;;;3.30;;
1004;SDS011;491;53.480;10.174;2023-06-22T04:38:22;4.60;;;3.43;;
1004;SDS011;491;53.480;10.174;2023-06-22T04:40:47;4.37;;;3.47;;
1004;SDS011;491;53.480;10.174;2023-06-22T04:43:16;4.83;;;3.83;;
1004;SDS011;491;53.480;10.174;2023-06-22T04:45:41;5.30;;;3.40;;
1004;SDS011;491;53.480;10.174;2023-06-22T04:48:07;4.27;;;3.03;;
1004;SDS011;491;53.480;10.174;2023-06-22T04:50:34;3.90;;;2.93;;
1004;SDS011;491;53.480;10.174;2023-06-22T04:53:02;5.80;;;2.73;;
1004;SDS011;491;53.480;10.174;2023-06-22T04:55:30;5.30;;;3.03;;
1004;SDS011;491;53.480;10.174;2023-06-22T04:57:56;4.03;;;3.57;;
1004;SDS011;491;53.480;10.174;2023-06-22T05:00:21;3.97;;;2.57;;
1004;SDS011;491;53.480;10.174;2023-06-22T05:02:51;5.13;;;3.70;;
1004;SDS011;491;53.480;10.174;2023-06-22T05:05:17;5.30;;;4.10;;
1004;SDS011;491;53.480;10.174;2023-06-22T05:07:43;4.33;;;3.50;;
1004;SDS011;491;53.480;10.174;2023-06-22T05:10:10;3.50;;;2.70;;
1004;SDS011;491;53.480;10.174;2023-06-22T05:12:37;4.67;;;2.80;;
1004;SDS011;491;53.480;10.174;2023-06-22T05:15:03;3.53;;;2.90;;
1004;SDS011;491;53.480;10.174;2023-06-22T05:17:29;4.90;;;2.67;;
1004;SDS011;491;53.480;10.174;2023-06-22T05:19:55;5.10;;;2.73;;
1004;SDS011;491;53.480;10.174;2023-06-22T05:22:21;4.07;;;2.20;;
1004;SDS011;491;53.480;10.174;2023-06-22T05:24:46;4.60;;;2.90;;
1004;SDS011;491;53.480;10.174;2023-06-22T05:27:12;2.43;;;1.83;;
1004;SDS011;491;53.480;10.174;2023-06-22T05:29:41;2.87;;;2.53;;
1004;SDS011;491;53.480;10.174;2023-06-22T05:32:07;5.07;;;2.47;;
1004;SDS011;491;53.480;10.174;2023-06-22T05:34:33;4.10;;;2.97;;
1004;SDS011;491;53.480;10.174;2023-06-22T05:36:58;4.47;;;2.90;;
1004;SDS011;491;53.480;10.174;2023-06-22T05:39:24;4.00;;;2.40;;
1004;SDS011;491;53.480;10.174;2023-06-22T05:41:52;3.97;;;2.87;;
1004;SDS011;491;53.480;10.174;2023-06-22T05:44:24;5.00;;;2.87;;
1004;SDS011;491;53.480;10.174;2023-06-22T05:46:50;4.23;;;2.60;;
1004;SDS011;491;53.480;10.174;2023-06-22T05:49:15;3.90;;;3.10;;
1004;SDS011;491;53.480;10.174;2023-06-22T05:51:41;5.40;;;2.40;;
1004;SDS011;491;53.480;10.174;2023-06-22T05:54:07;4.10;;;3.00;;
1004;SDS011;491;53.480;10.174;2023-06-22T05:56:33;2.80;;;2.33;;
1004;SDS011;491;53.480;10.174;2023-06-22T05:59:02;5.87;;;4.10;;
1004;SDS011;491;53.480;10.174;2023-06-22T06:01:27;3.10;;;2.20;;
1004;SDS011;491;53.480;10.174;2023-06-22T06:03:53;3.10;;;2.40;;
1004;SDS011;491;53.480;10.174;2023-06-22T06:06:18;4.37;;;2.50;;
1004;SDS011;491;53.480;10.174;2023-06-22T06:08:53;4.40;;;2.57;;
1004;SDS011;491;53.480;10.174;2023-06-22T06:11:19;2.57;;;1.90;;
1004;SDS011;491;53.480;10.174;2023-06-22T06:13:44;3.43;;;2.00;;
1004;SDS011;491;53.480;10.174;2023-06-22T06:16:10;3.03;;;2.13;;
1004;SDS011;491;53.480;10.174;2023-06-22T06:18:36;3.00;;;2.70;;
1004;SDS011;491;53.480;10.174;2023-06-22T06:21:02;3.77;;;2.10;;
1004;SDS011;491;53.480;10.174;2023-06-22T06:23:28;4.33;;;2.10;;
1004;SDS011;491;53.480;10.174;2023-06-22T06:25:53;4.60;;;2.80;;
1004;SDS011;491;53.480;10.174;2023-06-22T06:28:19;4.50;;;1.97;;
1004;SDS011;491;53.480;10.174;2023-06-22T06:30:44;7.47;;;1.90;;
1004;SDS011;491;53.480;10.174;2023-06-22T06:33:12;2.20;;;1.67;;
1004;SDS011;491;53.480;10.174;2023-06-22T06:35:37;3.03;;;1.50;;
1004;SDS011;491;53.480;10.174;2023-06-22T06:38:03;2.73;;;1.70;;
1004;SDS011;491;53.480;10.174;2023-06-22T06:40:28;3.50;;;1.47;;
1004;SDS011;491;53.480;10.174;2023-06-22T06:42:54;3.27;;;1.80;;
1004;SDS011;491;53.480;10.174;2023-06-22T06:45:20;3.80;;;1.30;;
1004;SDS011;491;53.480;10.174;2023-06-22T06:47:48;2.93;;;1.87;;
1004;SDS011;491;53.480;10.174;2023-06-22T06:50:14;3.07;;;2.13;;
1004;SDS011;491;53.480;10.174;2023-06-22T06:52:40;2.20;;;1.67;;
1004;SDS011;491;53.480;10.174;2023-06-22T06:55:06;3.93;;;1.70;;
1004;SDS011;491;53.480;10.174;2023-06-22T06:57:34;3.47;;;1.73;;
1004;SDS011;491;53.480;10.174;2023-06-22T07:00:02;2.87;;;1.33;;
1004;SDS011;491;53.480;10.174;2023-06-22T07:02:34;3.93;;;1.90;;
1004;SDS011;491;53.480;10.174;2023-06-22T07:04:59;2.07;;;1.73;;
1004;SDS011;491;53.480;10.174;2023-06-22T07:07:25;2.40;;;1.77;;
1004;SDS011;491;53.480;10.174;2023-06-22T07:09:50;3.73;;;1.70;;
1004;SDS011;491;53.480;10.174;2023-06-22T07:12:16;3.30;;;1.67;;
1004;SDS011;491;53.480;10.174;2023-06-22T07:14:44;2.30;;;1.37;;
1004;SDS011;491;53.480;10.174;2023-06-22T07:17:10;3.30;;;1.87;;
1004;SDS011;491;53.480;10.174;2023-06-22T07:19:35;1.70;;;0.90;;
1004;SDS011;491;53.480;10.174;2023-06-22T07:22:01;4.00;;;1.67;;
1004;SDS011;491;53.480;10.174;2023-06-22T07:24:26;2.57;;;1.60;;
1004;SDS011;491;53.480;10.174;2023-06-22T07:26:52;3.77;;;1.30;;
1004;SDS011;491;53.480;10.174;2023-06-22T07:29:17;3.13;;;1.93;;
1004;SDS011;491;53.480;10.174;2023-06-22T07:31:44;1.57;;;1.30;;
1004;SDS011;491;53.480;10.174;2023-06-22T07:34:10;2.07;;;0.90;;
1004;SDS011;491;53.480;10.174;2023-06-22T07:36:36;2.87;;;1.60;;
1004;SDS011;491;53.480;10.174;2023-06-22T07:39:02;2.07;;;1.70;;
1004;SDS011;491;53.480;10.174;2023-06-22T07:41:28;1.87;;;0.93;;
1004;SDS011;491;53.480;10.174;2023-06-22T07:43:54;2.20;;;1.30;;
1004;SDS011;491;53.480;10.174;2023-06-22T07:46:20;2.47;;;1.57;;
1004;SDS011;491;53.480;10.174;2023-06-22T07:48:45;3.60;;;2.23;;
1004;SDS011;491;53.480;10.174;2023-06-22T07:51:11;2.17;;;1.40;;
1004;SDS011;491;53.480;10.174;2023-06-22T07:53:43;3.17;;;1.53;;
1004;SDS011;491;53.480;10.174;2023-06-22T07:56:12;2.70;;;1.30;;
1004;SDS011;491;53.480;10.174;2023-06-22T07:58:38;2.90;;;1.87;;
1004;SDS011;491;53.480;10.174;2023-06-22T08:01:04;2.23;;;1.03;;
1004;SDS011;491;53.480;10.174;2023-06-22T08:03:30;4.10;;;1.23;;
1004;SDS011;491;53.480;10.174;2023-06-22T08:05:56;2.87;;;1.60;;
1004;SDS011;491;53.480;10.174;2023-06-22T08:08:22;3.70;;;1.50;;
1004;SDS011;491;53.480;10.174;2023-06-22T08:10:48;3.20;;;1.20;;
1004;SDS011;491;53.480;10.174;2023-06-22T08:13:13;2.70;;;1.53;;
1004;SDS011;491;53.480;10.174;2023-06-22T08:15:39;1.43;;;0.87;;
1004;SDS011;491;53.480;10.174;2023-06-22T08:18:08;3.80;;;1.37;;
1004;SDS011;491;53.480;10.174;2023-06-22T08:20:34;3.40;;;1.40;;
1004;SDS011;491;53.480;10.174;2023-06-22T08:22:59;2.37;;;1.00;;
1004;SDS011;491;53.480;10.174;2023-06-22T08:25:31;4.50;;;1.33;;
1004;SDS011;491;53.480;10.174;2023-06-22T08:27:57;2.07;;;1.10;;
1004;SDS011;491;53.480;10.174;2023-06-22T08:30:23;3.67;;;1.17;;
1004;SDS011;491;53.480;10.174;2023-06-22T08:32:48;1.60;;;1.10;;
1004;SDS011;491;53.480;10.174;2023-06-22T08:35:14;4.20;;;1.10;;
1004;SDS011;491;53.480;10.174;2023-06-22T08:37:39;2.73;;;1.47;;
1004;SDS011;491;53.480;10.174;2023-06-22T08:40:06;2.60;;;1.00;;
1004;SDS011;491;53.480;10.174;2023-06-22T08:42:33;2.40;;;1.27;;
1004;SDS011;491;53.480;10.174;2023-06-22T08:44:59;2.60;;;1.10;;
1004;SDS011;491;53.480;10.174;2023-06-22T08:47:25;1.80;;;1.57;;
1004;SDS011;491;53.480;10.174;2023-06-22T08:49:52;1.90;;;0.90;;
1004;SDS011;491;53.480;10.174;2023-06-22T08:52:18;3.13;;;1.40;;
1004;SDS011;491;53.480;10.174;2023-06-22T08:54:44;1.53;;;1.20;;
1004;SDS011;491;53.480;10.174;2023-06-22T08:57:10;2.37;;;1.23;;
1004;SDS011;491;53.480;10.174;2023-06-22T08:59:36;3.57;;;1.57;;
1004;SDS011;491;53.480;10.174;2023-06-22T09:02:01;2.10;;;1.23;;
1004;SDS011;491;53.480;10.174;2023-06-22T09:04:27;1.73;;;1.33;;
1004;SDS011;491;53.480;10.174;2023-06-22T09:06:52;3.10;;;1.10;;
1004;SDS011;491;53.480;10.174;2023-06-22T09:09:18;1.20;;;0.87;;
1004;SDS011;491;53.480;10.174;2023-06-22T09:11:43;1.90;;;0.93;;
1004;SDS011;491;53.480;10.174;2023-06-22T09:14:09;1.63;;;1.23;;
1004;SDS011;491;53.480;10.174;2023-06-22T09:16:35;1.67;;;1.30;;
1004;SDS011;491;53.480;10.174;2023-06-22T09:19:01;2.60;;;1.40;;
1004;SDS011;491;53.480;10.174;2023-06-22T09:21:26;2.70;;;1.67;;
1004;SDS011;491;53.480;10.174;2023-06-22T09:23:52;2.60;;;1.20;;
1004;SDS011;491;53.480;10.174;2023-06-22T09:26:20;1.43;;;1.23;;
1004;SDS011;491;53.480;10.174;2023-06-22T09:28:47;2.77;;;1.23;;
1004;SDS011;491;53.480;10.174;2023-06-22T09:31:13;5.23;;;1.30;;
1004;SDS011;491;53.480;10.174;2023-06-22T09:33:39;3.23;;;1.70;;
1004;SDS011;491;53.480;10.174;2023-06-22T09:36:05;4.43;;;1.40;;
1004;SDS011;491;53.480;10.174;2023-06-22T09:38:34;2.30;;;1.83;;
1004;SDS011;491;53.480;10.174;2023-06-22T09:41:00;3.63;;;2.20;;
1004;SDS011;491;53.480;10.174;2023-06-22T09:43:25;1.60;;;1.13;;
1004;SDS011;491;53.480;10.174;2023-06-22T09:45:52;2.23;;;1.23;;
1004;SDS011;491;53.480;10.174;2023-06-22T09:48:17;2.30;;;1.90;;
1004;SDS011;491;53.480;10.174;2023-06-22T09:50:43;2.33;;;1.87;;
1004;SDS011;491;53.480;10.174;2023-06-22T09:53:08;2.10;;;1.77;;
1004;SDS011;491;53.480;10.174;2023-06-22T09:55:34;2.10;;;1.83;;
1004;SDS011;491;53.480;10.174;2023-06-22T09:57:59;3.23;;;1.50;;
1004;SDS011;491;53.480;10.174;2023-06-22T10:00:25;2.33;;;2.13;;
1004;SDS011;491;53.480;10.174;2023-06-22T10:02:51;4.30;;;2.53;;
1004;SDS011;491;53.480;10.174;2023-06-22T10:05:17;6.40;;;2.50;;
1004;SDS011;491;53.480;10.174;2023-06-22T10:07:43;3.37;;;2.10;;
1004;SDS011;491;53.480;10.174;2023-06-22T10:10:09;4.10;;;2.00;;
1004;SDS011;491;53.480;10.174;2023-06-22T10:12:35;1.77;;;1.27;;
1004;SDS011;491;53.480;10.174;2023-06-22T10:15:02;3.50;;;1.83;;
1004;SDS011;491;53.480;10.174;2023-06-22T10:17:28;1.93;;;1.10;;
1004;SDS011;491;53.480;10.174;2023-06-22T10:19:53;2.00;;;1.67;;
1004;SDS011;491;53.480;10.174;2023-06-22T10:22:19;2.60;;;2.20;;
1004;SDS011;491;53.480;10.174;2023-06-22T10:24:44;1.97;;;1.70;;
1004;SDS011;491;53.480;10.174;2023-06-22T10:27:10;4.00;;;2.23;;
1004;SDS011;491;53.480;10.174;2023-06-22T10:29:37;2.60;;;2.40;;
1004;SDS011;491;53.480;10.174;2023-06-22T10:32:05;2.50;;;2.27;;
1004;SDS011;491;53.480;10.174;2023-06-22T10:34:31;2.80;;;2.60;;
1004;SDS011;491;53.480;10.174;2023-06-22T10:36:57;3.27;;;2.20;;
1004;SDS011;491;53.480;10.174;2023-06-22T10:39:22;2.53;;;2.20;;
1004;SDS011;491;53.480;10.174;2023-06-22T10:41:47;3.23;;;2.47;;
1004;SDS011;491;53.480;10.174;2023-06-22T10:44:13;3.70;;;2.53;;
1004;SDS011;491;53.480;10.174;2023-06-22T10:46:38;2.20;;;2.00;;
1004;SDS011;491;53.480;10.174;2023-06-22T10:49:04;3.90;;;2.90;;
1004;SDS011;491;53.480;10.174;2023-06-22T10:51:29;2.43;;;2.10;;
1004;SDS011;491;53.480;10.174;2023-06-22T10:53:56;3.87;;;2.43;;
1004;SDS011;491;53.480;10.174;2023-06-22T10:56:24;2.43;;;2.10;;
1004;SDS011;491;53.480;10.174;2023-06-22T10:58:50;2.83;;;2.13;;
1004;SDS011;491;53.480;10.174;2023-06-22T11:01:15;2.20;;;1.90;;
1004;SDS011;491;53.480;10.174;2023-06-22T11:03:41;2.73;;;2.13;;
1004;SDS011;491;53.480;10.174;2023-06-22T11:06:06;3.63;;;2.37;;
1004;SDS011;491;53.480;10.174;2023-06-22T11:08:32;2.77;;;2.47;;
1004;SDS011;491;53.480;10.174;2023-06-22T11:10:57;2.23;;;2.03;;
1004;SDS011;491;53.480;10.174;2023-06-22T11:13:23;3.13;;;2.80;;
1004;SDS011;491;53.480;10.174;2023-06-22T11:15:49;2.70;;;2.33;;
1004;SDS011;491;53.480;10.174;2023-06-22T11:18:15;2.50;;;2.30;;
1004;SDS011;491;53.480;10.174;2023-06-22T11:20:40;3.10;;;2.00;;
1004;SDS011;491;53.480;10.174;2023-06-22T11:23:06;5.40;;;3.30;;
1004;SDS011;491;53.480;10.174;2023-06-22T11:25:31;3.30;;;2.83;;
1004;SDS011;491;53.480;10.174;2023-06-22T11:27:57;3.63;;;3.07;;
1004;SDS011;491;53.480;10.174;2023-06-22T11:30:22;2.70;;;2.50;;
1004;SDS011;491;53.480;10.174;2023-06-22T11:32:48;3.33;;;2.37;;
1004;SDS011;491;53.480;10.174;2023-06-22T11:35:14;2.87;;;2.67;;
1004;SDS011;491;53.480;10.174;2023-06-22T11:37:39;3.00;;;2.70;;
1004;SDS011;491;53.480;10.174;2023-06-22T11:40:05;3.10;;;2.40;;
1004;SDS011;491;53.480;10.174;2023-06-22T11:42:33;3.23;;;2.93;;
1004;SDS011;491;53.480;10.174;2023-06-22T11:44:59;4.07;;;3.77;;
1004;SDS011;491;53.480;10.174;2023-06-22T11:47:25;3.40;;;3.10;;
1004;SDS011;491;53.480;10.174;2023-06-22T11:49:50;4.27;;;3.83;;
1004;SDS011;491;53.480;10.174;2023-06-22T11:52:16;3.00;;;2.60;;
1004;SDS011;491;53.480;10.174;2023-06-22T11:54:42;4.10;;;3.80;;
1004;SDS011;491;53.480;10.174;2023-06-22T11:57:08;3.10;;;2.80;;
1004;SDS011;491;53.480;10.174;2023-06-22T11:59:34;3.47;;;3.13;;
1004;SDS011;491;53.480;10.174;2023-06-22T12:01:59;3.27;;;2.97;;
1004;SDS011;491;53.480;10.174;2023-06-22T12:04:25;6.60;;;3.53;;
1004;SDS011;491;53.480;10.174;2023-06-22T12:06:50;3.50;;;3.20;;
1004;SDS011;491;53.480;10.174;2023-06-22T12:09:18;3.47;;;3.17;;
1004;SDS011;491;53.480;10.174;2023-06-22T12:11:44;5.20;;;3.30;;
1004;SDS011;491;53.480;10.174;2023-06-22T12:14:09;3.20;;;2.80;;
1004;SDS011;491;53.480;10.174;2023-06-22T12:16:35;3.50;;;3.20;;
1004;SDS011;491;53.480;10.174;2023-06-22T12:19:00;3.43;;;3.17;;
1004;SDS011;491;53.480;10.174;2023-06-22T12:21:26;3.50;;;3.20;;
1004;SDS011;491;53.480;10.174;2023-06-22T12:23:52;4.10;;;3.70;;
1004;SDS011;491;53.480;10.174;2023-06-22T12:26:17;5.53;;;3.60;;
1004;SDS011;491;53.480;10.174;2023-06-22T12:28:43;3.97;;;3.57;;
1004;SDS011;491;53.480;10.174;2023-06-22T12:31:08;4.10;;;3.57;;
1004;SDS011;491;53.480;10.174;2023-06-22T12:33:34;4.90;;;3.97;;
1004;SDS011;491;53.480;10.174;2023-06-22T12:35:59;4.20;;;3.80;;
1004;SDS011;491;53.480;10.174;2023-06-22T12:38:29;4.53;;;3.43;;
1004;SDS011;491;53.480;10.174;2023-06-22T12:40:55;3.60;;;3.13;;
1004;SDS011;491;53.480;10.174;2023-06-22T12:43:20;3.73;;;3.03;;
1004;SDS011;491;53.480;10.174;2023-06-22T12:45:46;4.40;;;3.43;;
1004;SDS011;491;53.480;10.174;2023-06-22T12:48:11;3.57;;;3.27;;
1004;SDS011;491;53.480;10.174;2023-06-22T12:50:37;4.20;;;3.80;;
1004;SDS011;491;53.480;10.174;2023-06-22T12:53:03;3.73;;;3.30;;
1004;SDS011;491;53.480;10.174;2023-06-22T12:55:29;3.87;;;3.57;;
1004;SDS011;491;53.480;10.174;2023-06-22T12:57:55;4.57;;;4.17;;
1004;SDS011;491;53.480;10.174;2023-06-22T13:00:20;4.90;;;4.40;;
1004;SDS011;491;53.480;10.174;2023-06-22T13:02:46;4.50;;;4.10;;
1004;SDS011;491;53.480;10.174;2023-06-22T13:05:11;3.60;;;3.30;;
1004;SDS011;491;53.480;10.174;2023-06-22T13:07:37;4.40;;;3.90;;
1004;SDS011;491;53.480;10.174;2023-06-22T13:10:03;4.00;;;3.60;;
1004;SDS011;491;53.480;10.174;2023-06-22T13:12:29;5.60;;;4.40;;
1004;SDS011;491;53.480;10.174;2023-06-22T13:14:54;4.07;;;3.67;;
1004;SDS011;491;53.480;10.174;2023-06-22T13:17:22;3.50;;;3.20;;
1004;SDS011;491;53.480;10.174;2023-06-22T13:19:48;4.00;;;3.53;;
1004;SDS011;491;53.480;10.174;2023-06-22T13:22:26;4.97;;;4.47;;
1004;SDS011;491;53.480;10.174;2023-06-22T13:25:04;4.10;;;3.60;;
1004;SDS011;491;53.480;10.174;2023-06-22T13:27:30;3.40;;;3.10;;
1004;SDS011;491;53.480;10.174;2023-06-22T13:29:56;4.37;;;3.63;;
1004;SDS011;491;53.480;10.174;2023-06-22T13:32:21;4.13;;;3.20;;
1004;SDS011;491;53.480;10.174;2023-06-22T13:34:47;4.00;;;3.60;;
1004;SDS011;491;53.480;10.174;2023-06-22T13:37:12;4.60;;;4.00;;
1004;SDS011;491;53.480;10.174;2023-06-22T13:39:38;3.50;;;3.20;;
1004;SDS011;491;53.480;10.174;2023-06-22T13:42:04;4.60;;;4.20;;
1004;SDS011;491;53.480;10.174;2023-06-22T13:44:29;4.17;;;3.87;;
1004;SDS011;491;53.480;10.174;2023-06-22T13:46:55;4.57;;;4.27;;
1004;SDS011;491;53.480;10.174;2023-06-22T13:49:20;4.27;;;3.90;;
1004;SDS011;491;53.480;10.174;2023-06-22T13:51:49;4.97;;;4.47;;
1004;SDS011;491;53.480;10.174;2023-06-22T13:54:15;4.23;;;3.83;;
1004;SDS011;491;53.480;10.174;2023-06-22T13:56:41;4.20;;;3.03;;
1004;SDS011;491;53.480;10.174;2023-06-22T13:59:06;4.30;;;3.60;;
1004;SDS011;491;53.480;10.174;2023-06-22T14:01:34;6.33;;;3.60;;
1004;SDS011;491;53.480;10.174;2023-06-22T14:04:00;3.60;;;3.23;;
1004;SDS011;491;53.480;10.174;2023-06-22T14:06:27;4.50;;;3.87;;
1004;SDS011;491;53.480;10.174;2023-06-22T14:08:52;3.83;;;3.50;;
1004;SDS011;491;53.480;10.174;2023-06-22T14:11:18;5.90;;;3.50;;
1004;SDS011;491;53.480;10.174;2023-06-22T14:13:43;4.17;;;3.53;;
1004;SDS011;491;53.480;10.174;2023-06-22T14:16:12;3.60;;;3.30;;
1004;SDS011;491;53.480;10.174;2023-06-22T14:18:37;3.93;;;3.53;;
1004;SDS011;491;53.480;10.174;2023-06-22T14:21:03;4.20;;;3.80;;
1004;SDS011;491;53.480;10.174;2023-06-22T14:23:28;4.23;;;3.80;;
1004;SDS011;491;53.480;10.174;2023-06-22T14:25:57;3.80;;;3.47;;
1004;SDS011;491;53.480;10.174;2023-06-22T14:28:22;4.10;;;3.77;;
1004;SDS011;491;53.480;10.174;2023-06-22T14:30:51;4.20;;;3.50;;
1004;SDS011;491;53.480;10.174;2023-06-22T14:33:16;5.53;;;4.77;;
1004;SDS011;491;53.480;10.174;2023-06-22T14:35:42;7.17;;;6.47;;
1004;SDS011;491;53.480;10.174;2023-06-22T14:38:07;6.03;;;5.17;;
1004;SDS011;491;53.480;10.174;2023-06-22T14:40:36;6.13;;;5.57;;
1004;SDS011;491;53.480;10.174;2023-06-22T14:43:01;6.03;;;4.40;;
1004;SDS011;491;53.480;10.174;2023-06-22T14:45:27;5.00;;;4.27;;
1004;SDS011;491;53.480;10.174;2023-06-22T14:47:52;5.63;;;5.10;;
1004;SDS011;491;53.480;10.174;2023-06-22T14:50:17;4.53;;;4.13;;
1004;SDS011;491;53.480;10.174;2023-06-22T14:52:43;5.03;;;4.53;;
1004;SDS011;491;53.480;10.174;2023-06-22T14:55:15;3.57;;;3.27;;
1004;SDS011;491;53.480;10.174;2023-06-22T14:57:40;3.63;;;3.33;;
1004;SDS011;491;53.480;10.174;2023-06-22T15:00:06;3.40;;;3.10;;
1004;SDS011;491;53.480;10.174;2023-06-22T15:02:32;3.73;;;3.33;;
1004;SDS011;491;53.480;10.174;2023-06-22T15:04:57;5.37;;;3.37;;
1004;SDS011;491;53.480;10.174;2023-06-22T15:07:23;5.37;;;3.83;;
1004;SDS011;491;53.480;10.174;2023-06-22T15:09:48;4.00;;;3.40;;
1004;SDS011;491;53.480;10.174;2023-06-22T15:12:14;3.60;;;3.30;;
1004;SDS011;491;53.480;10.174;2023-06-22T15:14:40;4.97;;;3.80;;